createdAt,value
2023-03-27T00:01:25.615Z,101348.97
2023-03-27T00:03:54.058Z,101349.88
2023-03-27T00:06:22.080Z,101355.94
2023-03-27T00:08:51.265Z,101363.75
2023-03-27T00:11:19.452Z,101374.06
2023-03-27T00:13:49.914Z,101379.63
2023-03-27T00:16:18.288Z,101388.38
2023-03-27T00:18:45.970Z,101390.34
2023-03-27T00:21:14.687Z,101398.16
2023-03-27T00:23:42.610Z,101408.78
2023-03-27T00:26:10.109Z,101425.13
2023-03-27T00:28:37.182Z,101434.06
2023-03-27T00:31:04.657Z,101423.28
2023-03-27T00:33:31.688Z,101414.31
2023-03-27T00:35:58.716Z,101417.13
2023-03-27T00:38:27.183Z,101434.78
2023-03-27T00:40:55.611Z,101428.34
2023-03-27T00:43:24.808Z,101433.78
2023-03-27T00:45:55.478Z,101426.50
2023-03-27T00:48:24.934Z,101428.13
2023-03-27T00:50:53.589Z,101431.19
2023-03-27T00:53:24.906Z,101434.91
2023-03-27T00:55:55.789Z,101439.47
2023-03-27T00:58:26.893Z,101436.03
2023-03-27T01:00:55.773Z,101443.41
2023-03-27T01:03:28.273Z,101444.63
2023-03-27T01:05:57.817Z,101440.41
2023-03-27T01:08:27.356Z,101445.53
2023-03-27T01:11:02.282Z,101447.63
2023-03-27T01:13:47.441Z,101452.66
2023-03-27T01:16:20.262Z,101453.69
2023-03-27T01:19:01.349Z,101450.91
2023-03-27T01:22:31.298Z,101454.84
2023-03-27T01:25:26.311Z,101453.47
2023-03-27T01:28:27.545Z,101453.59
2023-03-27T01:31:03.113Z,101454.94
2023-03-27T01:34:05.632Z,101449.47
2023-03-27T01:36:52.078Z,101461.22
2023-03-27T01:39:35.918Z,101456.00
2023-03-27T01:42:09.424Z,101459.47
2023-03-27T01:44:45.909Z,101469.59
2023-03-27T01:47:22.650Z,101482.66
2023-03-27T01:49:54.130Z,101481.25
2023-03-27T01:52:26.809Z,101483.13
2023-03-27T01:55:05.111Z,101480.91
2023-03-27T01:57:38.670Z,101481.63
2023-03-27T02:00:22.243Z,101486.41
2023-03-27T02:02:54.462Z,101493.50
2023-03-27T02:05:28.164Z,101493.09
2023-03-27T02:08:01.338Z,101499.81
2023-03-27T02:10:34.087Z,101509.28
2023-03-27T02:13:06.586Z,101536.19
2023-03-27T02:15:36.965Z,101535.09
2023-03-27T02:18:10.096Z,101540.13
2023-03-27T02:20:40.816Z,101538.63
2023-03-27T02:23:08.543Z,101540.34
2023-03-27T02:25:39.802Z,101557.97
2023-03-27T02:28:22.846Z,101549.75
2023-03-27T02:31:06.684Z,101553.44
2023-03-27T02:34:02.752Z,101546.91
2023-03-27T02:36:41.600Z,101542.91
2023-03-27T02:39:13.982Z,101551.13
2023-03-27T02:41:50.035Z,101537.22
2023-03-27T02:44:29.991Z,101551.66
2023-03-27T02:47:02.561Z,101550.09
2023-03-27T02:49:34.439Z,101557.91
2023-03-27T02:52:06.666Z,101557.78
2023-03-27T02:54:38.660Z,101565.50
2023-03-27T02:57:11.855Z,101559.38
2023-03-27T02:59:42.669Z,101560.13
2023-03-27T03:02:15.034Z,101562.16
2023-03-27T03:04:46.660Z,101564.88
2023-03-27T03:07:14.964Z,101574.13
2023-03-27T03:09:42.742Z,101560.97
2023-03-27T03:12:11.210Z,101561.63
2023-03-27T03:14:44.150Z,101574.84
2023-03-27T03:17:12.059Z,101571.53
2023-03-27T03:19:39.127Z,101578.38
2023-03-27T03:22:07.844Z,101576.78
2023-03-27T03:24:42.216Z,101587.13
2023-03-27T03:27:12.760Z,101587.16
2023-03-27T03:29:40.235Z,101577.56
2023-03-27T03:32:08.116Z,101582.03
2023-03-27T03:34:35.173Z,101593.16
2023-03-27T03:37:02.353Z,101586.22
2023-03-27T03:39:29.478Z,101593.47
2023-03-27T03:41:56.656Z,101607.03
2023-03-27T03:44:25.419Z,101603.72
2023-03-27T03:46:52.582Z,101610.38
2023-03-27T03:49:19.830Z,101611.50
2023-03-27T03:51:46.939Z,101627.63
2023-03-27T03:54:30.772Z,101645.78
2023-03-27T03:56:58.390Z,101640.13
2023-03-27T03:59:26.991Z,101638.59
2023-03-27T04:01:54.337Z,101638.00
2023-03-27T04:04:21.654Z,101632.25
2023-03-27T04:06:48.738Z,101642.47
2023-03-27T04:09:15.997Z,101644.13
2023-03-27T04:11:43.137Z,101655.00
2023-03-27T04:14:10.168Z,101649.69
2023-03-27T04:16:38.559Z,101652.75
2023-03-27T04:19:05.892Z,101662.13
2023-03-27T04:21:33.250Z,101662.81
2023-03-27T04:24:02.800Z,101660.53
2023-03-27T04:26:30.166Z,101660.94
2023-03-27T04:28:57.301Z,101666.66
2023-03-27T04:31:24.537Z,101672.81
2023-03-27T04:33:53.197Z,101674.28
2023-03-27T04:36:21.016Z,101675.41
2023-03-27T04:39:54.594Z,101683.28
2023-03-27T04:47:32.116Z,101703.72
2023-03-27T04:50:01.008Z,101691.56
2023-03-27T04:52:29.793Z,101703.47
2023-03-27T04:54:58.947Z,101707.19
2023-03-27T04:57:27.882Z,101704.16
2023-03-27T04:59:55.244Z,101703.59
2023-03-27T05:02:23.249Z,101708.91
2023-03-27T05:04:50.291Z,101719.16
2023-03-27T05:07:20.126Z,101717.78
2023-03-27T05:09:47.197Z,101724.47
2023-03-27T05:18:57.204Z,101750.72
2023-03-27T05:21:24.135Z,101764.22
2023-03-27T05:23:53.375Z,101785.88
2023-03-27T05:26:20.237Z,101798.47
2023-03-27T05:28:47.131Z,101792.09
2023-03-27T05:31:14.036Z,101785.06
2023-03-27T05:33:40.986Z,101787.22
2023-03-27T05:36:08.679Z,101781.03
2023-03-27T05:38:35.583Z,101780.44
2023-03-27T05:41:04.521Z,101785.56
2023-03-27T05:43:31.406Z,101780.84
2023-03-27T05:45:58.352Z,101784.34
2023-03-27T05:48:25.684Z,101779.81
2023-03-27T05:50:52.537Z,101788.44
2023-03-27T05:53:19.536Z,101793.75
2023-03-27T05:55:46.645Z,101792.91
2023-03-27T05:58:15.039Z,101799.31
2023-03-27T06:00:42.841Z,101798.00
2023-03-27T06:03:11.856Z,101804.13
2023-03-27T06:05:40.362Z,101818.31
2023-03-27T06:08:14.210Z,101814.19
2023-03-27T06:10:42.191Z,101816.31
2023-03-27T06:13:12.214Z,101821.28
2023-03-27T06:15:42.297Z,101815.47
2023-03-27T06:18:10.053Z,101826.41
2023-03-27T06:20:37.511Z,101832.63
2023-03-27T06:23:06.416Z,101825.97
2023-03-27T06:25:35.052Z,101832.63
2023-03-27T06:28:02.516Z,101844.53
2023-03-27T06:30:30.379Z,101838.09
2023-03-27T06:33:00.142Z,101845.09
2023-03-27T06:35:29.011Z,101849.78
2023-03-27T06:37:56.195Z,101851.44
2023-03-27T06:40:25.629Z,101850.66
2023-03-27T06:42:53.759Z,101874.22
2023-03-27T06:45:22.481Z,101878.53
2023-03-27T06:47:56.150Z,101895.97
2023-03-27T06:50:40.558Z,101894.09
2023-03-27T06:53:19.512Z,101899.78
2023-03-27T06:55:48.055Z,101904.31
2023-03-27T06:58:15.166Z,101904.16
2023-03-27T07:00:42.624Z,101904.88
2023-03-27T07:03:10.790Z,101913.56
2023-03-27T07:05:41.034Z,101907.78
2023-03-27T07:08:21.836Z,101904.31
2023-03-27T07:10:59.898Z,101914.63
2023-03-27T07:13:37.467Z,101911.81
2023-03-27T07:16:05.002Z,101920.13
2023-03-27T07:18:32.173Z,101926.81
2023-03-27T07:21:00.783Z,101938.53
2023-03-27T07:23:27.911Z,101931.03
2023-03-27T07:25:57.775Z,101940.31
2023-03-27T07:28:24.911Z,101940.06
2023-03-27T07:30:51.872Z,101941.34
2023-03-27T07:33:19.737Z,101939.69
2023-03-27T07:35:48.615Z,101954.81
2023-03-27T07:38:17.528Z,101957.84
2023-03-27T07:40:46.307Z,101956.00
2023-03-27T07:43:13.551Z,101944.00
2023-03-27T07:45:41.696Z,101958.50
2023-03-27T07:48:11.077Z,101950.94
2023-03-27T07:50:39.121Z,101956.38
2023-03-27T07:53:06.684Z,101963.31
2023-03-27T07:55:37.901Z,101950.63
2023-03-27T07:58:07.147Z,101971.38
2023-03-27T08:00:35.925Z,101975.22
2023-03-27T08:03:07.620Z,101975.75
2023-03-27T08:05:34.901Z,102006.28
2023-03-27T08:08:01.955Z,102010.53
2023-03-27T08:10:28.883Z,102021.81
2023-03-27T08:12:57.312Z,102036.72
2023-03-27T08:15:25.147Z,102018.03
2023-03-27T08:17:54.917Z,102040.91
2023-03-27T08:20:23.980Z,102021.38
2023-03-27T08:22:51.546Z,102003.22
2023-03-27T08:25:18.838Z,102003.59
2023-03-27T08:27:45.830Z,101998.50
2023-03-27T08:30:17.046Z,102000.66
2023-03-27T08:32:44.573Z,101999.25
2023-03-27T08:35:12.357Z,102001.47
2023-03-27T08:37:39.754Z,102010.41
2023-03-27T08:40:13.883Z,102010.69
2023-03-27T08:42:44.287Z,102001.63
2023-03-27T08:45:20.759Z,102011.66
2023-03-27T08:47:53.796Z,102019.91
2023-03-27T08:50:31.432Z,102032.88
2023-03-27T08:52:59.440Z,102023.84
2023-03-27T08:55:38.231Z,102026.31
2023-03-27T08:58:05.174Z,102024.03
2023-03-27T09:00:39.695Z,102041.13
2023-03-27T09:03:13.867Z,102045.16
2023-03-27T09:05:45.391Z,102044.31
2023-03-27T09:08:20.707Z,102048.50
2023-03-27T09:10:50.813Z,102057.41
2023-03-27T09:13:22.539Z,102059.56
2023-03-27T09:15:56.664Z,102055.22
2023-03-27T09:18:30.440Z,102061.72
2023-03-27T09:21:04.299Z,102060.81
2023-03-27T09:23:36.171Z,102064.97
2023-03-27T09:26:09.594Z,102066.31
2023-03-27T09:28:46.518Z,102062.38
2023-03-27T09:31:29.208Z,102053.94
2023-03-27T09:33:59.797Z,102049.25
2023-03-27T09:36:26.780Z,102055.03
2023-03-27T09:38:58.727Z,102054.09
2023-03-27T09:41:31.598Z,102054.94
2023-03-27T09:44:03.727Z,102053.78
2023-03-27T09:46:36.159Z,102069.66
2023-03-27T09:49:11.874Z,102073.78
2023-03-27T09:51:42.100Z,102082.44
2023-03-27T09:54:14.403Z,102071.00
2023-03-27T09:56:44.456Z,102079.56
2023-03-27T09:59:21.557Z,102076.78
2023-03-27T10:01:51.137Z,102093.03
2023-03-27T10:04:20.608Z,102091.38
2023-03-27T10:06:48.852Z,102097.84
2023-03-27T10:17:26.682Z,102108.53
2023-03-27T10:19:58.235Z,102106.31
2023-03-27T10:22:29.323Z,102102.34
2023-03-27T10:24:59.456Z,102104.88
2023-03-27T10:27:31.122Z,102110.31
2023-03-27T10:30:00.039Z,102107.75
2023-03-27T10:32:43.153Z,102098.34
2023-03-27T10:35:25.038Z,102120.31
2023-03-27T10:37:52.706Z,102125.00
2023-03-27T10:40:21.903Z,102122.91
2023-03-27T10:42:49.016Z,102128.72
2023-03-27T10:45:18.582Z,102139.75
2023-03-27T10:47:51.524Z,102146.78
2023-03-27T10:50:23.120Z,102147.00
2023-03-27T10:53:00.231Z,102154.31
2023-03-27T10:55:36.896Z,102156.47
2023-03-27T10:58:13.936Z,102157.88
2023-03-27T11:00:46.621Z,102157.31
2023-03-27T11:03:21.796Z,102156.59
2023-03-27T11:05:49.521Z,102161.91
2023-03-27T11:08:21.854Z,102161.69
2023-03-27T11:10:49.582Z,102162.25
2023-03-27T11:13:23.300Z,102174.25
2023-03-27T11:15:54.485Z,102179.44
2023-03-27T11:18:27.634Z,102172.72
2023-03-27T11:20:59.938Z,102175.41
2023-03-27T11:23:33.048Z,102170.94
2023-03-27T11:26:02.909Z,102180.31
2023-03-27T11:28:39.666Z,102178.81
2023-03-27T11:31:15.483Z,102182.84
2023-03-27T11:33:49.828Z,102191.84
2023-03-27T11:36:35.002Z,102178.22
2023-03-27T11:39:17.593Z,102196.16
2023-03-27T11:41:51.007Z,102195.97
2023-03-27T11:44:18.038Z,102199.06
2023-03-27T11:47:08.112Z,102195.72
2023-03-27T11:50:05.465Z,102195.13
2023-03-27T11:52:43.637Z,102207.78
2023-03-27T11:55:19.680Z,102197.81
2023-03-27T11:58:02.654Z,102189.84
2023-03-27T12:00:34.836Z,102191.00
2023-03-27T12:03:28.732Z,102194.97
2023-03-27T12:06:09.452Z,102192.66
2023-03-27T12:09:02.004Z,102192.06
2023-03-27T12:11:30.060Z,102184.31
2023-03-27T12:14:40.712Z,102192.78
2023-03-27T12:17:35.437Z,102204.91
2023-03-27T12:20:26.808Z,102200.41
2023-03-27T12:23:03.669Z,102202.63
2023-03-27T12:25:47.298Z,102202.63
2023-03-27T12:28:34.907Z,102198.06
2023-03-27T12:31:26.849Z,102203.47
2023-03-27T12:34:02.403Z,102209.00
2023-03-27T12:36:35.885Z,102217.75
2023-03-27T12:39:12.854Z,102228.88
2023-03-27T12:41:44.078Z,102239.75
2023-03-27T12:44:14.561Z,102239.78
2023-03-27T12:46:42.613Z,102241.16
2023-03-27T12:49:47.704Z,102248.38
2023-03-27T12:52:15.767Z,102243.69
2023-03-27T12:55:06.077Z,102237.66
2023-03-27T12:57:43.195Z,102233.91
2023-03-27T13:00:21.529Z,102239.56
2023-03-27T13:03:39.527Z,102234.28
2023-03-27T13:06:23.865Z,102233.00
2023-03-27T13:09:06.796Z,102234.66
2023-03-27T13:11:49.572Z,102234.53
2023-03-27T13:14:32.335Z,102233.78
2023-03-27T13:17:15.548Z,102221.47
2023-03-27T13:19:53.504Z,102225.81
2023-03-27T13:22:39.078Z,102219.78
2023-03-27T13:25:23.874Z,102228.50
2023-03-27T13:28:27.448Z,102230.88
2023-03-27T13:30:57.670Z,102223.16
2023-03-27T13:33:42.822Z,102222.44
2023-03-27T13:36:14.679Z,102222.16
2023-03-27T13:39:15.425Z,102231.69
2023-03-27T13:42:04.510Z,102224.47
2023-03-27T13:44:47.444Z,102222.09
2023-03-27T13:47:40.650Z,102221.91
2023-03-27T13:50:23.717Z,102230.22
2023-03-27T13:53:23.922Z,102225.19
2023-03-27T13:56:11.093Z,102243.31
2023-03-27T13:59:28.658Z,102229.72
2023-03-27T14:02:12.881Z,102240.47
2023-03-27T14:04:57.553Z,102242.56
2023-03-27T14:07:56.255Z,102253.78
2023-03-27T14:11:02.597Z,102253.53
2023-03-27T14:13:44.351Z,102256.69
2023-03-27T14:16:41.349Z,102259.41
2023-03-27T14:19:33.417Z,102255.16
2023-03-27T14:22:03.600Z,102245.69
2023-03-27T14:24:38.263Z,102265.09
2023-03-27T14:27:11.005Z,102260.28
2023-03-27T14:29:38.167Z,102265.34
2023-03-27T14:32:06.606Z,102265.38
2023-03-27T14:34:43.535Z,102263.16
2023-03-27T14:37:29.070Z,102266.22
2023-03-27T14:39:57.502Z,102265.56
2023-03-27T14:42:31.126Z,102271.38
2023-03-27T14:45:18.074Z,102265.28
2023-03-27T14:47:48.306Z,102271.25
2023-03-27T14:50:17.660Z,102280.09
2023-03-27T14:52:44.599Z,102274.50
2023-03-27T14:55:18.093Z,102280.69
2023-03-27T14:57:45.501Z,102270.56
2023-03-27T15:00:17.516Z,102270.41
2023-03-27T15:02:47.992Z,102275.50
2023-03-27T15:05:19.221Z,102286.09
2023-03-27T15:07:49.063Z,102287.34
2023-03-27T15:10:24.355Z,102276.13
2023-03-27T15:12:51.674Z,102289.38
2023-03-27T15:15:31.064Z,102282.78
2023-03-27T15:17:59.935Z,102283.59
2023-03-27T15:20:31.908Z,102286.19
2023-03-27T15:23:04.907Z,102295.00
2023-03-27T15:25:37.167Z,102291.28
2023-03-27T15:28:11.998Z,102295.63
2023-03-27T15:30:44.361Z,102298.88
2023-03-27T15:33:20.362Z,102305.16
2023-03-27T15:35:52.773Z,102298.72
2023-03-27T15:38:26.353Z,102305.25
2023-03-27T15:41:02.322Z,102307.84
2023-03-27T15:43:30.876Z,102310.34
2023-03-27T15:46:13.643Z,102312.09
2023-03-27T15:48:44.978Z,102313.63
2023-03-27T15:51:27.377Z,102318.53
2023-03-27T15:53:57.973Z,102315.75
2023-03-27T15:56:27.798Z,102310.78
2023-03-27T15:58:58.566Z,102308.00
2023-03-27T16:01:31.285Z,102315.91
2023-03-27T16:04:02.387Z,102318.34
2023-03-27T16:06:36.703Z,102321.94
2023-03-27T16:09:06.010Z,102320.28
2023-03-27T16:11:35.552Z,102318.25
2023-03-27T16:14:02.794Z,102318.84
2023-03-27T16:16:33.330Z,102323.09
2023-03-27T16:19:02.582Z,102315.59
2023-03-27T16:21:36.190Z,102328.88
2023-03-27T16:24:03.394Z,102323.84
2023-03-27T16:26:32.101Z,102318.94
2023-03-27T16:29:01.019Z,102322.34
2023-03-27T16:31:28.042Z,102328.56
2023-03-27T16:33:55.002Z,102325.25
2023-03-27T16:36:28.897Z,102322.47
2023-03-27T16:38:57.014Z,102324.50
2023-03-27T16:41:23.995Z,102330.13
2023-03-27T16:43:51.118Z,102326.09
2023-03-27T16:46:22.471Z,102318.41
2023-03-27T16:48:49.555Z,102319.72
2023-03-27T16:51:17.780Z,102324.63
2023-03-27T16:53:45.376Z,102325.63
2023-03-27T16:56:14.228Z,102332.53
2023-03-27T16:58:41.148Z,102335.81
2023-03-27T17:01:08.963Z,102336.31
2023-03-27T17:03:37.302Z,102343.13
2023-03-27T17:06:07.142Z,102338.47
2023-03-27T17:08:34.553Z,102327.16
2023-03-27T17:11:03.019Z,102337.44
2023-03-27T17:13:32.316Z,102334.38
2023-03-27T17:16:00.381Z,102338.34
2023-03-27T17:18:27.539Z,102334.88
2023-03-27T17:20:54.544Z,102323.91
2023-03-27T17:23:21.569Z,102335.53
2023-03-27T17:25:48.866Z,102337.41
2023-03-27T17:28:16.565Z,102338.41
2023-03-27T17:30:56.608Z,102347.19
2023-03-27T17:33:28.580Z,102342.00
2023-03-27T17:35:57.411Z,102344.91
2023-03-27T17:38:24.984Z,102341.28
2023-03-27T17:40:52.260Z,102347.81
2023-03-27T17:43:19.440Z,102344.13
2023-03-27T17:45:49.151Z,102345.22
2023-03-27T17:48:16.181Z,102350.66
2023-03-27T17:50:47.956Z,102360.50
2023-03-27T17:53:22.008Z,102358.06
2023-03-27T17:55:50.753Z,102360.41
2023-03-27T17:58:21.327Z,102352.22
2023-03-27T18:00:50.348Z,102358.94
2023-03-27T18:03:17.382Z,102361.84
2023-03-27T18:05:44.411Z,102366.06
2023-03-27T18:08:12.947Z,102349.72
2023-03-27T18:10:45.068Z,102362.66
2023-03-27T18:13:12.592Z,102351.28
2023-03-27T18:15:39.775Z,102362.25
2023-03-27T18:18:08.276Z,102363.53
2023-03-27T18:20:35.812Z,102357.06
2023-03-27T18:23:02.821Z,102357.50
2023-03-27T18:25:30.423Z,102364.75
2023-03-27T18:27:57.336Z,102364.22
2023-03-27T18:30:24.252Z,102363.47
2023-03-27T18:32:51.521Z,102372.16
2023-03-27T18:35:20.685Z,102362.75
2023-03-27T18:37:47.605Z,102366.69
2023-03-27T18:40:16.313Z,102354.56
2023-03-27T18:42:46.159Z,102366.56
2023-03-27T18:45:14.897Z,102366.91
2023-03-27T18:47:43.162Z,102366.94
2023-03-27T18:50:11.453Z,102371.09
2023-03-27T18:52:40.392Z,102365.84
2023-03-27T18:55:09.308Z,102362.25
2023-03-27T18:57:36.456Z,102362.81
2023-03-27T19:00:07.390Z,102366.41
2023-03-27T19:02:36.377Z,102361.69
2023-03-27T19:05:04.039Z,102360.88
2023-03-27T19:07:31.236Z,102363.34
2023-03-27T19:09:59.574Z,102361.66
2023-03-27T19:12:26.484Z,102370.28
2023-03-27T19:14:53.340Z,102375.53
2023-03-27T19:17:21.132Z,102370.22
2023-03-27T19:19:48.092Z,102374.41
2023-03-27T19:22:15.048Z,102376.34
2023-03-27T19:24:42.346Z,102388.00
2023-03-27T19:27:23.063Z,102378.53
2023-03-27T19:29:51.329Z,102383.50
2023-03-27T19:32:18.286Z,102381.19
2023-03-27T19:34:45.260Z,102386.47
2023-03-27T19:37:12.313Z,102374.28
2023-03-27T19:39:39.255Z,102386.47
2023-03-27T19:42:06.225Z,102379.19
2023-03-27T19:44:34.531Z,102388.41
2023-03-27T19:47:03.794Z,102386.72
2023-03-27T19:49:30.947Z,102390.56
2023-03-27T19:51:57.854Z,102391.88
2023-03-27T19:54:24.920Z,102382.19
2023-03-27T19:56:55.134Z,102388.56
2023-03-27T19:59:30.503Z,102390.19
2023-03-27T20:01:59.910Z,102395.44
2023-03-27T20:04:26.811Z,102398.72
2023-03-27T20:06:54.006Z,102391.22
2023-03-27T20:09:20.971Z,102391.19
2023-03-27T20:11:47.932Z,102397.31
2023-03-27T20:14:14.907Z,102393.13
2023-03-27T20:16:41.903Z,102395.91
2023-03-27T20:19:10.216Z,102399.16
2023-03-27T20:21:39.116Z,102401.63
2023-03-27T20:24:09.951Z,102403.88
2023-03-27T20:26:41.625Z,102398.53
2023-03-27T20:29:11.442Z,102399.06
2023-03-27T20:31:39.339Z,102400.66
2023-03-27T20:34:06.818Z,102401.25
2023-03-27T20:36:36.109Z,102407.25
2023-03-27T20:39:07.652Z,102399.84
2023-03-27T20:41:34.685Z,102405.66
2023-03-27T20:44:02.840Z,102410.56
2023-03-27T20:46:30.695Z,102407.56
2023-03-27T20:48:57.799Z,102408.97
2023-03-27T20:51:25.114Z,102403.13
2023-03-27T20:53:57.418Z,102399.16
2023-03-27T20:56:25.159Z,102406.63
2023-03-27T20:58:52.150Z,102413.00
2023-03-27T21:01:27.864Z,102416.81
2023-03-27T21:03:58.347Z,102410.09
2023-03-27T21:06:25.900Z,102417.00
2023-03-27T21:08:54.182Z,102411.38
2023-03-27T21:11:21.127Z,102414.50
2023-03-27T21:13:48.056Z,102411.75
2023-03-27T21:16:14.968Z,102417.53
2023-03-27T21:18:41.830Z,102417.75
2023-03-27T21:21:08.833Z,102405.53
2023-03-27T21:23:37.013Z,102410.75
2023-03-27T21:26:05.856Z,102403.47
2023-03-27T21:28:32.730Z,102410.66
2023-03-27T21:30:59.803Z,102411.41
2023-03-27T21:33:26.666Z,102412.59
2023-03-27T21:35:53.610Z,102411.22
2023-03-27T21:38:20.725Z,102410.00
2023-03-27T21:40:47.843Z,102410.53
2023-03-27T21:43:16.118Z,102400.63
2023-03-27T21:45:43.116Z,102404.47
2023-03-27T21:48:10.787Z,102402.81
2023-03-27T21:50:38.002Z,102402.66
2023-03-27T21:53:04.867Z,102408.50
2023-03-27T21:55:31.879Z,102405.22
2023-03-27T21:57:59.047Z,102408.56
2023-03-27T22:00:27.416Z,102410.66
2023-03-27T22:02:54.369Z,102412.56
2023-03-27T22:05:21.479Z,102406.75
2023-03-27T22:07:48.750Z,102415.81
2023-03-27T22:10:16.648Z,102408.31
2023-03-27T22:12:43.545Z,102400.34
2023-03-27T22:15:11.224Z,102406.38
2023-03-27T22:17:39.660Z,102406.53
2023-03-27T22:20:07.729Z,102407.34
2023-03-27T22:22:34.972Z,102408.53
2023-03-27T22:25:01.934Z,102407.94
2023-03-27T22:27:28.895Z,102401.28
2023-03-27T22:29:56.016Z,102410.44
2023-03-27T22:32:23.023Z,102407.94
2023-03-27T22:34:51.765Z,102413.41
2023-03-27T22:37:20.188Z,102407.03
2023-03-27T22:39:47.171Z,102417.00
2023-03-27T22:42:14.136Z,102409.81
2023-03-27T22:44:41.131Z,102416.09
2023-03-27T22:47:07.998Z,102421.13
2023-03-27T22:49:36.247Z,102422.22
2023-03-27T22:52:06.059Z,102430.78
2023-03-27T22:54:33.241Z,102422.72
2023-03-27T22:57:00.174Z,102418.69
2023-03-27T22:59:27.107Z,102423.94
2023-03-27T23:01:54.295Z,102431.69
2023-03-27T23:04:21.479Z,102420.28
2023-03-27T23:06:48.841Z,102420.56
2023-03-27T23:09:17.240Z,102426.09
2023-03-27T23:11:44.174Z,102419.13
2023-03-27T23:14:11.503Z,102421.81
2023-03-27T23:16:38.577Z,102420.28
2023-03-27T23:19:06.840Z,102422.66
2023-03-27T23:21:33.727Z,102418.50
2023-03-27T23:24:00.691Z,102417.59
2023-03-27T23:26:29.034Z,102407.28
2023-03-27T23:28:56.079Z,102412.81
2023-03-27T23:31:23.071Z,102417.19
2023-03-27T23:33:51.222Z,102415.28
2023-03-27T23:36:21.094Z,102411.47
2023-03-27T23:38:48.328Z,102417.00
2023-03-27T23:41:16.334Z,102416.81
2023-03-27T23:43:44.751Z,102409.81
2023-03-27T23:46:12.372Z,102409.22
2023-03-27T23:48:40.638Z,102405.69
2023-03-27T23:51:08.542Z,102406.19
2023-03-27T23:53:36.361Z,102410.69
2023-03-27T23:56:03.781Z,102405.63
2023-03-27T23:58:32.840Z,102399.19
